createdAt,value
2023-11-01T00:00:57.183Z,60.62
2023-11-01T00:03:25.165Z,60.96
2023-11-01T00:05:53.135Z,60.94
2023-11-01T00:08:20.951Z,61.03
2023-11-01T00:10:48.816Z,60.65
2023-11-01T00:13:18.064Z,60.69
2023-11-01T00:15:45.913Z,61.36
2023-11-01T00:18:13.811Z,61.28
2023-11-01T00:20:41.739Z,61.13
2023-11-01T00:23:09.653Z,61.13
2023-11-01T00:25:37.623Z,61.05
2023-11-01T00:28:05.650Z,61.02
2023-11-01T00:30:34.923Z,60.99
2023-11-01T00:33:02.771Z,61.17
2023-11-01T00:35:30.618Z,61.12
2023-11-01T00:37:58.503Z,61.12
2023-11-01T00:40:26.378Z,61.40
2023-11-01T00:42:54.247Z,60.68
2023-11-01T00:45:22.258Z,61.03
2023-11-01T00:47:51.618Z,60.67
2023-11-01T00:50:19.849Z,61.03
2023-11-01T00:52:47.725Z,60.94
2023-11-01T00:55:15.584Z,60.77
2023-11-01T00:57:43.934Z,61.02
2023-11-01T01:00:12.916Z,61.12
2023-11-01T01:02:40.917Z,61.33
2023-11-01T01:05:10.402Z,61.51
2023-11-01T01:07:38.326Z,61.21
2023-11-01T01:10:05.962Z,61.05
2023-11-01T01:12:33.766Z,60.61
2023-11-01T01:15:02.479Z,60.70
2023-11-01T01:17:30.439Z,60.94
2023-11-01T01:19:58.258Z,60.88
2023-11-01T01:22:27.428Z,61.17
2023-11-01T01:24:55.343Z,60.99
2023-11-01T01:27:23.103Z,60.79
2023-11-01T01:29:50.888Z,60.77
2023-11-01T01:32:18.701Z,61.02
2023-11-01T01:34:46.472Z,61.16
2023-11-01T01:37:14.210Z,61.71
2023-11-01T01:39:43.395Z,61.73
2023-11-01T01:42:11.187Z,61.42
2023-11-01T01:44:39.064Z,61.91
2023-11-01T01:47:06.889Z,62.08
2023-11-01T01:49:40.044Z,61.94
2023-11-01T01:52:12.948Z,61.47
2023-11-01T01:54:40.705Z,61.83
2023-11-01T01:57:10.927Z,61.76
2023-11-01T01:59:38.914Z,61.65
2023-11-01T02:02:07.209Z,61.40
2023-11-01T02:04:34.913Z,61.57
2023-11-01T02:07:02.719Z,61.61
2023-11-01T02:09:30.487Z,61.53
2023-11-01T02:11:58.280Z,61.55
2023-11-01T02:14:28.184Z,61.85
2023-11-01T02:16:56.098Z,61.65
2023-11-01T02:19:24.442Z,61.65
2023-11-01T02:21:52.217Z,61.59
2023-11-01T02:24:21.561Z,61.89
2023-11-01T02:26:49.359Z,62.35
2023-11-01T02:29:17.210Z,61.39
2023-11-01T02:31:45.058Z,61.93
2023-11-01T02:34:13.017Z,62.01
2023-11-01T02:36:40.758Z,61.92
2023-11-01T02:39:09.071Z,61.64
2023-11-01T02:41:40.157Z,62.06
2023-11-01T02:44:10.050Z,61.25
2023-11-01T02:46:38.134Z,61.29
2023-11-01T02:49:06.126Z,61.43
2023-11-01T02:51:33.997Z,61.43
2023-11-01T02:54:02.916Z,61.58
2023-11-01T02:56:30.729Z,62.06
2023-11-01T02:58:59.987Z,61.74
2023-11-01T03:01:27.986Z,62.30
2023-11-01T03:03:55.869Z,61.69
2023-11-01T03:06:23.713Z,62.55
2023-11-01T03:08:51.988Z,62.52
2023-11-01T03:11:19.792Z,62.53
2023-11-01T03:13:47.536Z,62.75
2023-11-01T03:16:16.760Z,63.16
2023-11-01T03:18:46.731Z,62.67
2023-11-01T03:21:14.570Z,63.24
2023-11-01T03:23:42.484Z,63.18
2023-11-01T03:26:10.537Z,63.64
2023-11-01T03:28:38.271Z,63.63
2023-11-01T03:31:07.355Z,63.98
2023-11-01T03:33:36.658Z,64.16
2023-11-01T03:36:06.441Z,64.27
2023-11-01T03:38:34.389Z,64.61
2023-11-01T03:41:04.422Z,64.52
2023-11-01T03:43:32.170Z,64.98
2023-11-01T03:46:00.008Z,65.16
2023-11-01T03:48:28.195Z,65.08
2023-11-01T03:50:57.446Z,65.05
2023-11-01T03:53:25.658Z,65.38
2023-11-01T03:55:53.551Z,65.62
2023-11-01T03:58:21.456Z,65.27
2023-11-01T04:00:49.176Z,65.26
2023-11-01T04:03:17.017Z,65.75
2023-11-01T04:05:44.946Z,66.04
2023-11-01T04:08:15.242Z,65.88
2023-11-01T04:10:43.061Z,66.09
2023-11-01T04:13:11.682Z,66.16
2023-11-01T04:15:39.505Z,66.35
2023-11-01T04:18:07.919Z,65.77
2023-11-01T04:20:35.714Z,66.03
2023-11-01T04:23:03.552Z,66.30
2023-11-01T04:25:33.375Z,66.61
2023-11-01T04:28:01.527Z,66.82
2023-11-01T04:30:35.465Z,66.67
2023-11-01T04:33:03.284Z,66.90
2023-11-01T04:35:31.101Z,66.59
2023-11-01T04:37:58.865Z,66.61
2023-11-01T04:40:26.633Z,66.75
2023-11-01T04:42:56.537Z,66.67
2023-11-01T04:45:24.585Z,66.91
2023-11-01T04:47:52.415Z,66.86
2023-11-01T04:50:21.821Z,66.59
2023-11-01T04:52:49.511Z,67.27
2023-11-01T04:55:17.802Z,67.38
2023-11-01T04:57:48.331Z,67.47
2023-11-01T05:00:18.335Z,67.62
2023-11-01T05:02:47.354Z,67.49
2023-11-01T05:09:14.933Z,67.85
2023-11-01T05:24:16.865Z,67.85
2023-11-01T05:26:46.495Z,68.18
2023-11-01T05:29:17.616Z,68.44
2023-11-01T05:31:45.734Z,68.08
2023-11-01T05:34:16.145Z,68.62
2023-11-01T05:36:45.552Z,67.83
2023-11-01T05:39:14.184Z,67.90
2023-11-01T05:41:48.610Z,67.76
2023-11-01T05:44:20.709Z,67.84
2023-11-01T05:46:54.205Z,67.90
2023-11-01T05:49:22.326Z,67.92
2023-11-01T05:51:51.517Z,68.03
2023-11-01T05:54:19.716Z,67.69
2023-11-01T05:56:57.274Z,68.28
2023-11-01T05:59:26.680Z,67.47
2023-11-01T06:02:07.269Z,67.62
2023-11-01T06:04:35.715Z,67.28
2023-11-01T06:07:06.135Z,67.29
2023-11-01T06:09:34.460Z,67.18
2023-11-01T06:12:10.518Z,66.78
2023-11-01T06:14:40.557Z,67.06
2023-11-01T06:17:08.724Z,67.17
2023-11-01T06:19:36.794Z,67.34
2023-11-01T06:22:06.099Z,66.91
2023-11-01T06:24:34.472Z,66.76
2023-11-01T06:27:03.106Z,66.42
2023-11-01T06:29:31.220Z,66.31
2023-11-01T06:32:01.088Z,66.92
2023-11-01T06:34:29.364Z,66.41
2023-11-01T06:37:03.910Z,65.41
2023-11-01T06:39:32.398Z,66.42
2023-11-01T06:42:00.592Z,65.89
2023-11-01T06:44:28.728Z,66.12
2023-11-01T06:46:57.948Z,66.32
2023-11-01T06:49:30.894Z,66.34
2023-11-01T06:52:00.278Z,65.94
2023-11-01T06:54:29.549Z,65.96
2023-11-01T06:56:57.847Z,65.81
2023-11-01T06:59:28.840Z,65.48
2023-11-01T07:02:03.556Z,65.62
2023-11-01T07:04:33.776Z,65.83
2023-11-01T07:07:01.994Z,65.36
2023-11-01T07:09:31.218Z,65.49
2023-11-01T07:12:00.976Z,65.45
2023-11-01T07:14:30.468Z,65.43
2023-11-01T07:16:59.616Z,65.40
2023-11-01T07:19:34.754Z,64.86
2023-11-01T07:22:03.274Z,65.20
2023-11-01T07:24:34.373Z,64.79
2023-11-01T07:27:38.741Z,65.54
2023-11-01T07:36:31.758Z,64.33
2023-11-01T07:42:39.479Z,63.94
2023-11-01T07:45:12.789Z,64.15
2023-11-01T07:47:42.599Z,63.95
2023-11-01T07:50:33.664Z,63.09
2023-11-01T07:53:03.763Z,62.86
2023-11-01T07:55:32.363Z,62.69
2023-11-01T07:58:05.175Z,62.25
2023-11-01T08:00:37.325Z,61.75
2023-11-01T08:03:05.380Z,60.76
2023-11-01T08:05:35.479Z,59.93
2023-11-01T08:08:07.709Z,59.36
2023-11-01T08:10:35.705Z,58.50
2023-11-01T08:13:03.670Z,58.65
2023-11-01T08:15:36.246Z,58.31
2023-11-01T08:18:04.432Z,58.39
2023-11-01T08:20:35.741Z,58.36
2023-11-01T08:23:05.235Z,57.93
2023-11-01T08:25:34.136Z,58.19
2023-11-01T08:28:05.369Z,58.15
2023-11-01T08:30:34.910Z,57.47
2023-11-01T08:33:05.999Z,57.33
2023-11-01T08:35:35.747Z,57.01
2023-11-01T08:38:07.594Z,56.59
2023-11-01T08:40:35.670Z,55.87
2023-11-01T08:43:05.678Z,55.48
2023-11-01T08:45:35.920Z,54.99
2023-11-01T08:48:14.263Z,54.58
2023-11-01T08:50:43.011Z,52.68
2023-11-01T08:53:12.713Z,50.92
2023-11-01T08:55:40.908Z,49.64
2023-11-01T08:58:09.329Z,49.20
2023-11-01T09:00:45.783Z,47.55
2023-11-01T09:03:25.511Z,47.20
2023-11-01T09:05:57.103Z,44.49
2023-11-01T09:08:29.613Z,44.64
2023-11-01T09:10:57.747Z,44.12
2023-11-01T09:13:27.123Z,43.30
2023-11-01T09:15:55.067Z,43.52
2023-11-01T09:18:23.221Z,44.11
2023-11-01T09:20:54.381Z,43.77
2023-11-01T09:23:24.246Z,43.56
2023-11-01T09:25:53.975Z,44.61
2023-11-01T09:28:23.338Z,44.32
2023-11-01T09:30:51.477Z,45.15
2023-11-01T09:33:20.899Z,44.88
2023-11-01T09:35:50.342Z,44.95
2023-11-01T09:38:18.808Z,44.68
2023-11-01T09:40:47.020Z,44.50
2023-11-01T09:43:17.410Z,43.09
2023-11-01T09:45:47.731Z,42.79
2023-11-01T09:48:16.009Z,42.46
2023-11-01T09:50:46.481Z,42.75
2023-11-01T09:53:17.256Z,43.28
2023-11-01T09:55:49.616Z,43.59
2023-11-01T09:58:20.836Z,43.99
2023-11-01T10:00:49.243Z,44.37
2023-11-01T10:03:19.063Z,45.00
2023-11-01T10:05:47.529Z,44.88
2023-11-01T10:08:17.461Z,45.46
2023-11-01T10:10:45.444Z,46.05
2023-11-01T10:13:15.534Z,46.57
2023-11-01T10:15:46.436Z,46.61
2023-11-01T10:18:14.621Z,46.48
2023-11-01T10:20:44.700Z,46.11
2023-11-01T10:23:13.345Z,44.32
2023-11-01T10:26:15.005Z,42.46
2023-11-01T11:12:21.039Z,28.35
2023-11-01T11:14:49.240Z,28.31
2023-11-01T11:17:21.154Z,27.72
2023-11-01T11:34:13.116Z,26.71
2023-11-01T11:36:40.897Z,27.26
2023-11-01T11:39:11.557Z,29.46
2023-11-01T11:41:46.274Z,29.26
2023-11-01T11:44:14.544Z,29.14
2023-11-01T11:46:47.419Z,27.94
2023-11-01T11:49:28.984Z,27.50
2023-11-01T11:55:09.145Z,26.25
2023-11-01T12:01:28.633Z,25.05
2023-11-01T12:04:15.617Z,24.74
2023-11-01T12:07:04.578Z,25.37
2023-11-01T12:09:42.206Z,25.22
2023-11-01T12:15:06.616Z,25.95
2023-11-01T12:17:57.851Z,26.13
2023-11-01T12:20:38.839Z,26.65
2023-11-01T12:23:13.757Z,27.71
2023-11-01T12:25:45.119Z,29.16
2023-11-01T12:28:22.004Z,30.63
2023-11-01T12:30:49.772Z,32.74
2023-11-01T12:33:20.769Z,33.83
2023-11-01T12:35:48.596Z,35.71
2023-11-01T12:38:18.719Z,37.14
2023-11-01T12:40:51.147Z,37.79
2023-11-01T12:43:30.406Z,38.87
2023-11-01T12:49:59.815Z,40.37
2023-11-01T12:52:27.798Z,40.82
2023-11-01T12:54:56.870Z,41.24
2023-11-01T12:57:24.655Z,41.92
2023-11-01T12:59:52.437Z,42.25
2023-11-01T13:02:20.401Z,42.46
2023-11-01T13:04:48.233Z,42.65
2023-11-01T13:07:16.033Z,43.71
2023-11-01T13:09:43.767Z,43.92
2023-11-01T13:12:12.868Z,43.93
2023-11-01T13:14:40.618Z,44.23
2023-11-01T13:17:09.311Z,44.28
2023-11-01T13:19:37.116Z,44.78
2023-11-01T13:22:05.357Z,45.05
2023-11-01T13:24:33.182Z,44.89
2023-11-01T13:27:07.618Z,45.26
2023-11-01T13:29:36.980Z,45.43
2023-11-01T13:32:05.014Z,46.14
2023-11-01T13:34:32.923Z,46.14
2023-11-01T13:37:01.967Z,46.25
2023-11-01T13:39:29.699Z,46.62
2023-11-01T13:41:57.470Z,46.98
2023-11-01T13:44:25.808Z,46.63
2023-11-01T13:46:55.125Z,46.77
2023-11-01T13:49:23.034Z,47.28
2023-11-01T13:51:52.144Z,47.35
2023-11-01T13:54:22.360Z,47.56
2023-11-01T13:56:50.211Z,47.90
2023-11-01T13:59:20.282Z,48.24
2023-11-01T14:01:49.164Z,48.43
2023-11-01T14:04:19.480Z,49.11
2023-11-01T14:06:48.403Z,48.88
2023-11-01T14:09:18.174Z,49.19
2023-11-01T14:11:53.532Z,49.26
2023-11-01T15:35:10.247Z,52.60
2023-11-01T15:37:41.519Z,53.01
2023-11-01T15:40:11.668Z,53.00
2023-11-01T15:42:46.800Z,52.88
2023-11-01T15:45:16.035Z,52.81
2023-11-01T15:47:44.150Z,53.07
2023-11-01T15:51:11.893Z,52.88
2023-11-01T15:53:50.467Z,52.66
2023-11-01T15:56:38.380Z,52.73
2023-11-01T15:59:11.600Z,52.70
2023-11-01T16:01:40.358Z,52.45
2023-11-01T16:04:08.656Z,52.52
2023-11-01T16:20:59.856Z,53.41
2023-11-01T16:27:35.639Z,53.50
2023-11-01T16:33:57.796Z,53.85
2023-11-01T16:36:28.252Z,53.66
2023-11-01T16:38:58.117Z,53.57
2023-11-01T16:50:53.081Z,54.61
2023-11-01T16:53:32.901Z,54.88
2023-11-01T16:56:49.451Z,53.88
2023-11-01T17:10:58.580Z,53.90
2023-11-01T17:46:47.731Z,52.88
2023-11-01T17:49:44.637Z,53.31
2023-11-01T17:52:12.503Z,53.33
2023-11-01T17:54:40.386Z,53.21
2023-11-01T17:57:08.306Z,53.37
2023-11-01T17:59:47.547Z,52.93
2023-11-01T18:02:59.383Z,52.83
2023-11-01T18:05:35.576Z,53.11
2023-11-01T18:08:09.785Z,53.21
2023-11-01T18:10:42.771Z,53.23
2023-11-01T18:13:23.594Z,52.95
2023-11-01T18:15:56.226Z,52.87
2023-11-01T18:18:42.658Z,52.87
2023-11-01T18:21:12.278Z,52.74
2023-11-01T18:23:41.547Z,53.06
2023-11-01T18:26:20.694Z,53.12
2023-11-01T18:28:50.103Z,52.93
2023-11-01T18:31:21.603Z,52.95
2023-11-01T18:33:58.085Z,53.27
2023-11-01T18:36:26.785Z,53.05
2023-11-01T18:38:55.846Z,52.94
2023-11-01T18:41:27.046Z,53.52
2023-11-01T18:43:55.691Z,52.77
2023-11-01T18:46:33.282Z,52.55
2023-11-01T18:49:01.799Z,52.84
2023-11-01T18:51:56.687Z,52.71
2023-11-01T18:54:25.643Z,52.28
2023-11-01T18:56:53.868Z,52.40
2023-11-01T18:59:31.846Z,52.38
2023-11-01T19:02:01.290Z,52.56
2023-11-01T19:04:29.426Z,52.26
2023-11-01T19:06:59.060Z,52.42
2023-11-01T19:09:27.527Z,52.05
2023-11-01T19:11:56.792Z,51.70
2023-11-01T19:14:24.828Z,52.05
2023-11-01T19:16:53.954Z,51.92
2023-11-01T19:19:23.612Z,51.56
2023-11-01T19:21:52.099Z,51.98
2023-11-01T19:24:20.206Z,51.75
2023-11-01T19:26:48.501Z,51.95
2023-11-01T19:29:18.782Z,51.83
2023-11-01T19:31:47.207Z,52.24
2023-11-01T19:34:15.344Z,52.31
2023-11-01T19:36:45.586Z,52.27
2023-11-01T19:39:14.364Z,52.86
2023-11-01T19:41:43.992Z,52.95
2023-11-01T19:44:12.628Z,53.03
2023-11-01T19:46:43.441Z,53.62
2023-11-01T19:49:12.269Z,53.55
2023-11-01T19:51:40.737Z,53.67
2023-11-01T19:54:12.699Z,54.67
2023-11-01T19:56:41.074Z,54.29
2023-11-01T19:59:10.981Z,54.70
2023-11-01T20:01:41.695Z,54.96
2023-11-01T20:04:10.173Z,54.97
2023-11-01T20:06:38.521Z,54.62
2023-11-01T20:09:10.607Z,54.68
2023-11-01T20:11:43.104Z,54.96
2023-11-01T20:14:13.955Z,54.56
2023-11-01T20:16:42.393Z,54.77
2023-11-01T20:19:13.185Z,55.03
2023-11-01T20:21:47.670Z,54.81
2023-11-01T23:08:02.855Z,54.38
2023-11-01T23:10:32.320Z,54.62
2023-11-01T23:13:02.101Z,54.00
2023-11-01T23:15:30.087Z,54.18
2023-11-01T23:17:58.942Z,54.49
2023-11-01T23:20:27.379Z,54.71
2023-11-01T23:22:57.686Z,54.37
2023-11-01T23:25:30.271Z,54.49
2023-11-01T23:28:00.706Z,54.93
2023-11-01T23:30:44.174Z,54.57
2023-11-01T23:33:13.062Z,54.43
2023-11-01T23:42:10.265Z,55.20
2023-11-01T23:56:02.080Z,55.97
2023-11-01T23:58:31.290Z,55.84
